createdAt,value
2022-11-29T00:00:49.372Z,36.40
2022-11-29T00:01:57.169Z,36.80
2022-11-29T00:03:00.768Z,37.50
2022-11-29T00:04:04.474Z,38.10
2022-11-29T00:05:07.775Z,35.80
2022-11-29T00:06:16.979Z,38.90
2022-11-29T00:07:20.077Z,38.70
2022-11-29T00:08:24.352Z,39.70
2022-11-29T00:09:27.768Z,38.90
2022-11-29T00:10:30.744Z,38.00
2022-11-29T00:11:54.882Z,39.30
2022-11-29T00:12:57.801Z,36.70
2022-11-29T00:14:01.057Z,39.30
2022-11-29T00:15:04.514Z,42.60
2022-11-29T00:16:10.772Z,38.80
2022-11-29T00:17:13.709Z,38.30
2022-11-29T00:18:16.661Z,36.50
2022-11-29T00:19:20.809Z,38.10
2022-11-29T00:20:23.735Z,39.60
2022-11-29T00:21:27.327Z,38.60
2022-11-29T00:22:30.282Z,38.00
2022-11-29T00:23:33.597Z,40.00
2022-11-29T00:24:36.791Z,35.60
2022-11-29T00:25:39.904Z,37.10
2022-11-29T00:26:42.853Z,35.80
2022-11-29T00:27:46.377Z,36.20
2022-11-29T00:28:49.542Z,35.20
2022-11-29T00:29:52.754Z,40.50
2022-11-29T00:30:55.699Z,38.00
2022-11-29T00:31:59.253Z,42.60
2022-11-29T00:33:03.146Z,37.30
2022-11-29T00:34:07.289Z,38.40
2022-11-29T00:35:10.397Z,39.60
2022-11-29T00:36:14.360Z,37.10
2022-11-29T00:37:17.247Z,39.70
2022-11-29T00:38:20.185Z,39.20
2022-11-29T00:39:23.449Z,38.60
2022-11-29T00:40:26.965Z,38.50
2022-11-29T00:41:30.349Z,38.00
2022-11-29T00:42:33.268Z,36.50
2022-11-29T00:43:36.310Z,37.90
2022-11-29T00:44:39.349Z,37.40
2022-11-29T00:45:42.517Z,39.20
2022-11-29T00:46:45.482Z,40.60
2022-11-29T00:47:48.404Z,39.10
2022-11-29T00:48:51.288Z,37.20
2022-11-29T00:49:54.404Z,41.90
2022-11-29T00:50:57.638Z,36.70
2022-11-29T00:52:00.582Z,39.40
2022-11-29T00:53:03.506Z,37.70
2022-11-29T00:54:06.397Z,37.20
2022-11-29T00:55:09.618Z,33.60
2022-11-29T00:56:12.892Z,40.70
2022-11-29T00:57:15.898Z,38.30
2022-11-29T00:58:20.030Z,36.70
2022-11-29T00:59:23.162Z,39.60
2022-11-29T01:00:26.088Z,38.30
2022-11-29T01:01:29.389Z,41.70
2022-11-29T01:02:32.444Z,37.90
2022-11-29T01:03:35.509Z,38.10
2022-11-29T01:04:38.543Z,39.30
2022-11-29T01:05:43.026Z,37.10
2022-11-29T01:06:46.254Z,37.90
2022-11-29T01:07:49.299Z,37.70
2022-11-29T01:08:52.421Z,39.50
2022-11-29T01:09:55.379Z,40.70
2022-11-29T01:11:07.219Z,38.40
2022-11-29T01:12:10.189Z,40.50
2022-11-29T01:13:13.873Z,38.90
2022-11-29T01:14:16.826Z,40.30
2022-11-29T01:15:19.909Z,39.10
2022-11-29T01:16:23.496Z,36.40
2022-11-29T01:17:26.806Z,39.10
2022-11-29T01:18:30.557Z,40.10
2022-11-29T01:19:33.439Z,37.40
2022-11-29T01:20:36.434Z,42.00
2022-11-29T01:21:39.497Z,39.30
2022-11-29T01:22:43.404Z,38.00
2022-11-29T01:23:47.588Z,37.60
2022-11-29T01:24:50.687Z,39.30
2022-11-29T01:26:02.563Z,44.60
2022-11-29T01:27:05.633Z,37.70
2022-11-29T01:28:08.662Z,39.60
2022-11-29T01:29:13.637Z,41.50
2022-11-29T01:30:16.575Z,38.70
2022-11-29T01:31:25.224Z,37.40
2022-11-29T01:32:28.183Z,38.40
2022-11-29T01:33:31.164Z,42.30
2022-11-29T01:34:34.084Z,47.10
2022-11-29T01:35:37.022Z,39.20
2022-11-29T01:36:40.075Z,41.40
2022-11-29T01:37:43.022Z,39.20
2022-11-29T01:38:46.077Z,34.90
2022-11-29T01:39:49.314Z,40.40
2022-11-29T01:41:00.080Z,40.50
2022-11-29T01:42:03.163Z,39.60
2022-11-29T01:43:15.312Z,41.70
2022-11-29T01:44:18.214Z,39.50
2022-11-29T01:45:26.540Z,41.60
2022-11-29T01:46:32.399Z,42.90
2022-11-29T01:47:42.376Z,40.30
2022-11-29T01:48:45.561Z,40.90
2022-11-29T01:49:49.935Z,41.80
2022-11-29T01:50:55.057Z,41.90
2022-11-29T01:52:05.533Z,43.30
2022-11-29T01:53:11.897Z,40.40
2022-11-29T01:54:15.275Z,43.30
2022-11-29T01:55:19.071Z,41.60
2022-11-29T01:56:24.359Z,42.60
2022-11-29T01:57:28.037Z,41.50
2022-11-29T01:58:32.082Z,41.20
2022-11-29T01:59:38.797Z,43.20
2022-11-29T02:00:42.036Z,41.00
2022-11-29T02:01:45.406Z,40.40
2022-11-29T02:02:59.308Z,40.30
2022-11-29T02:04:02.856Z,42.80
2022-11-29T02:05:06.771Z,42.70
2022-11-29T02:06:10.381Z,38.20
2022-11-29T02:07:13.630Z,41.80
2022-11-29T02:08:33.593Z,40.60
2022-11-29T02:09:36.698Z,42.30
2022-11-29T02:10:55.150Z,44.60
2022-11-29T02:12:19.526Z,40.40
2022-11-29T02:14:05.773Z,39.60
2022-11-29T02:15:39.485Z,38.70
2022-11-29T02:17:06.666Z,39.30
2022-11-29T02:18:14.687Z,44.50
2022-11-29T02:20:00.455Z,43.80
2022-11-29T02:21:04.024Z,44.10
2022-11-29T02:22:18.018Z,42.20
2022-11-29T02:23:21.224Z,40.10
2022-11-29T02:24:39.749Z,39.00
2022-11-29T02:26:02.451Z,42.20
2022-11-29T02:27:30.061Z,39.20
2022-11-29T02:28:57.554Z,36.90
2022-11-29T02:30:12.506Z,40.20
2022-11-29T02:33:24.145Z,39.90
2022-11-29T02:34:43.537Z,39.20
2022-11-29T02:36:11.083Z,36.20
2022-11-29T02:37:48.058Z,37.30
2022-11-29T02:39:32.966Z,36.70
2022-11-29T02:40:52.085Z,37.40
2022-11-29T02:42:15.741Z,35.70
2022-11-29T02:43:38.961Z,33.60
2022-11-29T02:45:00.638Z,36.40
2022-11-29T02:46:22.363Z,35.70
2022-11-29T02:47:50.115Z,37.00
2022-11-29T02:49:14.421Z,38.50
2022-11-29T02:50:54.570Z,33.70
2022-11-29T02:52:12.035Z,32.30
2022-11-29T02:53:27.369Z,33.90
2022-11-29T02:54:45.449Z,31.40
2022-11-29T02:56:01.719Z,36.50
2022-11-29T02:57:31.288Z,34.30
2022-11-29T02:58:42.181Z,36.40
2022-11-29T03:00:05.171Z,31.90
2022-11-29T03:01:18.475Z,33.50
2022-11-29T03:02:33.541Z,32.90
2022-11-29T03:03:43.596Z,33.20
2022-11-29T03:04:51.785Z,31.70
2022-11-29T03:06:12.295Z,31.70
2022-11-29T03:07:36.621Z,32.20
2022-11-29T03:09:05.089Z,30.90
2022-11-29T03:10:12.483Z,32.70
2022-11-29T03:11:36.224Z,30.40
2022-11-29T03:12:43.722Z,29.30
2022-11-29T03:14:08.427Z,29.60
2022-11-29T03:15:19.228Z,28.80
2022-11-29T03:16:43.286Z,29.20
2022-11-29T03:18:00.475Z,28.50
2022-11-29T03:19:18.529Z,28.70
2022-11-29T03:20:34.200Z,26.70
2022-11-29T03:21:56.201Z,27.90
2022-11-29T03:23:04.863Z,27.00
2022-11-29T03:24:18.536Z,27.80
2022-11-29T03:25:29.099Z,25.90
2022-11-29T03:27:54.155Z,29.90
2022-11-29T03:29:12.034Z,26.20
2022-11-29T03:30:18.559Z,27.60
2022-11-29T03:31:30.137Z,26.40
2022-11-29T03:32:45.225Z,27.00
2022-11-29T03:34:08.322Z,28.20
2022-11-29T03:35:20.934Z,25.70
2022-11-29T03:36:51.117Z,22.80
2022-11-29T03:38:09.457Z,25.60
2022-11-29T03:39:20.866Z,23.70
2022-11-29T03:40:42.119Z,26.50
2022-11-29T03:42:07.167Z,25.20
2022-11-29T03:43:16.679Z,24.50
2022-11-29T03:44:33.433Z,23.80
2022-11-29T03:45:43.627Z,24.80
2022-11-29T03:47:19.685Z,25.10
2022-11-29T03:48:31.373Z,23.50
2022-11-29T03:49:41.357Z,24.80
2022-11-29T03:50:53.053Z,25.70
2022-11-29T03:52:28.470Z,23.70
2022-11-29T03:53:51.261Z,22.60
2022-11-29T03:55:20.434Z,23.00
2022-11-29T03:56:31.556Z,23.10
2022-11-29T03:57:46.545Z,21.40
2022-11-29T03:59:03.158Z,25.00
2022-11-29T04:00:13.092Z,21.90
2022-11-29T04:01:24.298Z,22.10
2022-11-29T04:03:08.000Z,24.20
2022-11-29T04:04:33.188Z,20.20
2022-11-29T04:06:21.111Z,19.90
2022-11-29T04:07:51.960Z,20.30
2022-11-29T04:09:10.399Z,19.90
2022-11-29T04:10:19.936Z,22.00
2022-11-29T04:11:58.930Z,20.80
2022-11-29T04:13:37.273Z,20.10
2022-11-29T04:14:54.666Z,21.00
2022-11-29T04:16:03.571Z,20.20
2022-11-29T04:17:12.585Z,21.60
2022-11-29T04:18:47.193Z,22.40
2022-11-29T04:20:09.423Z,20.50
2022-11-29T04:21:30.659Z,22.20
2022-11-29T04:23:14.819Z,22.40
2022-11-29T04:24:55.541Z,21.90
2022-11-29T04:26:17.393Z,21.10
2022-11-29T04:27:52.550Z,21.50
2022-11-29T04:29:26.337Z,20.90
2022-11-29T04:30:42.578Z,22.20
2022-11-29T04:32:03.682Z,22.10
2022-11-29T04:33:59.753Z,23.10
2022-11-29T04:35:21.552Z,20.00
2022-11-29T04:36:42.628Z,22.30
2022-11-29T04:38:30.527Z,21.60
2022-11-29T04:40:10.996Z,22.10
2022-11-29T04:41:28.382Z,21.60
2022-11-29T04:42:40.119Z,21.00
2022-11-29T04:43:59.803Z,21.60
2022-11-29T04:45:36.557Z,23.40
2022-11-29T04:47:27.239Z,22.60
2022-11-29T04:48:52.154Z,19.50
2022-11-29T04:50:24.731Z,22.10
2022-11-29T04:51:43.779Z,22.50
2022-11-29T04:53:19.637Z,23.30
2022-11-29T04:54:44.298Z,21.30
2022-11-29T04:56:01.405Z,21.30
2022-11-29T04:57:04.444Z,22.20
2022-11-29T04:58:36.613Z,22.70
2022-11-29T05:00:00.862Z,22.70
2022-11-29T05:01:35.701Z,24.20
2022-11-29T05:02:57.478Z,23.40
2022-11-29T05:04:13.806Z,23.40
2022-11-29T05:05:39.639Z,24.00
2022-11-29T05:07:10.469Z,24.30
2022-11-29T05:08:26.255Z,19.10
2022-11-29T05:09:59.538Z,22.00
2022-11-29T05:11:30.481Z,21.30
2022-11-29T05:12:51.233Z,25.70
2022-11-29T05:14:08.749Z,21.80
2022-11-29T05:15:24.625Z,20.90
2022-11-29T05:16:46.163Z,20.80
2022-11-29T05:18:16.505Z,21.20
2022-11-29T05:19:45.833Z,19.20
2022-11-29T05:21:05.267Z,19.70
2022-11-29T05:22:36.392Z,19.50
2022-11-29T05:23:47.630Z,21.20
2022-11-29T05:24:56.888Z,18.20
2022-11-29T05:26:07.902Z,22.40
2022-11-29T05:27:23.178Z,21.30
2022-11-29T05:28:39.112Z,25.40
2022-11-29T05:29:59.096Z,23.70
2022-11-29T05:31:42.555Z,24.20
2022-11-29T05:32:57.908Z,27.50
2022-11-29T05:34:22.091Z,29.40
2022-11-29T05:35:37.043Z,29.00
2022-11-29T05:36:49.087Z,27.50
2022-11-29T05:38:07.180Z,26.10
2022-11-29T05:39:43.205Z,26.70
2022-11-29T05:41:13.885Z,26.30
2022-11-29T05:43:57.614Z,26.40
2022-11-29T05:45:28.747Z,21.80
2022-11-29T05:46:45.884Z,24.20
2022-11-29T05:47:57.621Z,22.50
2022-11-29T05:49:24.145Z,22.70
2022-11-29T05:50:45.763Z,24.60
2022-11-29T05:51:58.006Z,22.60
2022-11-29T05:53:13.564Z,25.40
2022-11-29T05:54:34.451Z,25.50
2022-11-29T05:55:44.795Z,23.70
2022-11-29T05:57:29.849Z,24.30
2022-11-29T05:58:58.433Z,25.80
2022-11-29T06:00:03.188Z,27.20
2022-11-29T06:01:28.284Z,23.70
2022-11-29T06:02:46.410Z,24.70
2022-11-29T06:04:02.293Z,24.70
2022-11-29T06:05:40.366Z,27.30
2022-11-29T06:06:57.364Z,23.80
2022-11-29T06:08:19.027Z,25.90
2022-11-29T06:09:27.016Z,24.20
2022-11-29T06:10:34.032Z,26.50
2022-11-29T06:11:44.949Z,23.00
2022-11-29T06:13:29.579Z,22.80
2022-11-29T06:14:51.186Z,25.60
2022-11-29T06:16:09.418Z,24.50
2022-11-29T06:17:39.208Z,22.80
2022-11-29T06:19:07.917Z,24.10
2022-11-29T06:20:32.438Z,26.10
2022-11-29T06:21:53.693Z,25.00
2022-11-29T06:23:05.810Z,22.30
2022-11-29T06:24:41.140Z,24.10
2022-11-29T06:26:03.485Z,23.20
2022-11-29T06:27:19.422Z,23.80
2022-11-29T06:28:42.594Z,22.10
2022-11-29T06:30:10.845Z,24.10
2022-11-29T06:31:56.198Z,23.20
2022-11-29T06:33:22.536Z,21.10
2022-11-29T06:34:36.592Z,23.50
2022-11-29T06:35:48.327Z,23.60
2022-11-29T06:36:57.369Z,24.60
2022-11-29T06:38:09.690Z,23.30
2022-11-29T06:39:13.470Z,22.50
2022-11-29T06:40:16.959Z,22.60
2022-11-29T06:41:23.025Z,24.10
2022-11-29T06:42:26.098Z,24.80
2022-11-29T06:43:30.188Z,24.20
2022-11-29T06:44:33.603Z,22.50
2022-11-29T06:45:36.885Z,24.50
2022-11-29T06:46:49.263Z,25.60
2022-11-29T06:48:00.186Z,24.30
2022-11-29T06:49:09.901Z,24.40
2022-11-29T06:50:40.966Z,25.50
2022-11-29T06:51:49.702Z,24.00
2022-11-29T06:53:04.798Z,29.20
2022-11-29T06:54:30.473Z,25.90
2022-11-29T06:55:59.612Z,25.40
2022-11-29T06:57:16.271Z,23.30
2022-11-29T06:58:56.122Z,24.70
2022-11-29T07:00:12.759Z,28.40
2022-11-29T07:01:37.474Z,25.00
2022-11-29T07:03:11.766Z,26.30
2022-11-29T07:04:26.573Z,26.10
2022-11-29T07:05:32.719Z,25.00
2022-11-29T07:06:36.340Z,25.70
2022-11-29T07:07:41.197Z,24.90
2022-11-29T07:08:45.478Z,24.40
2022-11-29T07:09:52.316Z,27.90
2022-11-29T07:10:56.174Z,27.60
2022-11-29T07:11:59.581Z,27.40
2022-11-29T07:13:03.370Z,24.80
2022-11-29T07:14:06.507Z,26.50
2022-11-29T07:15:18.231Z,25.50
2022-11-29T07:16:34.020Z,26.40
2022-11-29T07:17:48.992Z,25.90
2022-11-29T07:19:15.454Z,28.30
2022-11-29T07:20:43.949Z,24.20
2022-11-29T07:21:59.021Z,29.60
2022-11-29T07:23:43.242Z,27.70
2022-11-29T07:25:08.082Z,32.10
2022-11-29T07:26:34.664Z,32.50
2022-11-29T07:28:01.600Z,42.70
2022-11-29T07:29:45.199Z,28.80
2022-11-29T07:31:07.186Z,30.30
2022-11-29T07:32:34.517Z,30.20
2022-11-29T07:33:37.960Z,31.40
2022-11-29T07:34:54.418Z,39.70
2022-11-29T07:36:06.965Z,37.00
2022-11-29T07:37:28.306Z,34.60
2022-11-29T07:38:49.358Z,38.70
2022-11-29T07:40:37.196Z,33.60
2022-11-29T07:41:57.999Z,38.90
2022-11-29T07:43:20.965Z,38.10
2022-11-29T07:44:44.512Z,34.40
2022-11-29T07:45:48.118Z,31.40
2022-11-29T07:46:51.406Z,33.20
2022-11-29T07:47:54.751Z,38.20
2022-11-29T07:48:57.754Z,38.40
2022-11-29T07:50:00.663Z,38.80
2022-11-29T07:51:04.052Z,34.10
2022-11-29T07:52:06.973Z,35.10
2022-11-29T07:53:18.341Z,36.00
2022-11-29T07:54:22.567Z,36.90
2022-11-29T07:55:27.221Z,36.00
2022-11-29T07:56:30.359Z,39.50
2022-11-29T07:57:33.501Z,34.80
2022-11-29T07:58:36.738Z,38.30
2022-11-29T07:59:39.622Z,36.10
2022-11-29T08:00:44.471Z,36.50
2022-11-29T08:01:47.681Z,34.30
2022-11-29T08:02:50.893Z,36.70
2022-11-29T08:03:54.318Z,38.40
2022-11-29T08:04:58.019Z,36.60
2022-11-29T08:06:02.017Z,34.30
2022-11-29T08:07:05.091Z,34.40
2022-11-29T08:08:08.260Z,33.90
2022-11-29T08:09:11.259Z,32.90
2022-11-29T08:10:16.630Z,35.20
2022-11-29T08:11:19.515Z,38.70
2022-11-29T08:12:22.700Z,32.60
2022-11-29T08:13:25.585Z,33.00
2022-11-29T08:14:32.860Z,35.60
2022-11-29T08:15:35.881Z,36.70
2022-11-29T08:16:38.881Z,37.10
2022-11-29T08:17:42.082Z,33.10
2022-11-29T08:18:45.385Z,35.90
2022-11-29T08:19:48.294Z,36.90
2022-11-29T08:20:51.233Z,35.40
2022-11-29T08:21:54.330Z,36.50
2022-11-29T08:22:59.234Z,37.00
2022-11-29T08:24:02.858Z,38.40
2022-11-29T08:25:07.272Z,33.50
2022-11-29T08:26:10.225Z,35.00
2022-11-29T08:27:13.430Z,35.90
2022-11-29T08:28:16.678Z,40.80
2022-11-29T08:29:19.984Z,37.90
2022-11-29T08:30:24.383Z,35.70
2022-11-29T08:31:27.826Z,33.80
2022-11-29T08:32:30.975Z,35.20
2022-11-29T08:33:42.690Z,36.50
2022-11-29T08:34:45.947Z,36.70
2022-11-29T08:35:49.825Z,31.10
2022-11-29T08:36:55.268Z,36.60
2022-11-29T08:37:58.253Z,31.80
2022-11-29T08:39:08.913Z,41.20
2022-11-29T08:40:13.899Z,34.30
2022-11-29T08:41:17.375Z,36.30
2022-11-29T08:42:20.333Z,32.30
2022-11-29T08:43:23.263Z,33.50
2022-11-29T08:44:26.434Z,35.10
2022-11-29T08:45:30.069Z,31.10
2022-11-29T08:46:52.134Z,33.70
2022-11-29T08:47:55.272Z,36.20
2022-11-29T08:48:58.445Z,33.50
2022-11-29T08:50:14.139Z,34.20
2022-11-29T08:51:17.094Z,32.80
2022-11-29T08:52:38.820Z,34.10
2022-11-29T08:53:41.815Z,33.00
2022-11-29T08:54:45.329Z,33.20
2022-11-29T08:55:48.858Z,30.80
2022-11-29T08:58:16.110Z,28.60
2022-11-29T08:59:19.002Z,33.70
2022-11-29T09:00:22.176Z,34.50
2022-11-29T09:01:25.319Z,34.30
2022-11-29T09:02:28.385Z,39.00
2022-11-29T09:03:53.048Z,37.20
2022-11-29T09:04:56.038Z,30.20
2022-11-29T09:05:59.785Z,33.50
2022-11-29T09:07:03.229Z,31.10
2022-11-29T09:08:06.310Z,35.00
2022-11-29T09:09:09.216Z,34.50
2022-11-29T09:10:12.505Z,34.10
2022-11-29T09:11:19.798Z,33.40
2022-11-29T09:12:23.253Z,32.60
2022-11-29T09:13:26.496Z,33.40
2022-11-29T09:14:29.479Z,32.80
2022-11-29T09:15:32.458Z,35.80
2022-11-29T09:16:37.364Z,33.50
2022-11-29T09:17:40.451Z,27.60
2022-11-29T09:18:50.066Z,33.90
2022-11-29T09:19:54.573Z,29.90
2022-11-29T09:20:57.649Z,38.30
2022-11-29T09:22:00.634Z,38.00
2022-11-29T09:23:03.880Z,33.90
2022-11-29T09:24:07.151Z,32.50
2022-11-29T09:25:10.253Z,33.90
2022-11-29T09:26:18.867Z,33.90
2022-11-29T09:27:21.896Z,33.10
2022-11-29T09:28:25.333Z,34.90
2022-11-29T09:29:28.475Z,31.50
2022-11-29T09:30:31.986Z,33.70
2022-11-29T09:31:35.565Z,33.20
2022-11-29T09:32:39.247Z,34.70
2022-11-29T09:33:42.429Z,32.50
2022-11-29T09:34:45.779Z,31.80
2022-11-29T09:35:49.042Z,33.00
2022-11-29T09:36:52.051Z,31.00
2022-11-29T09:37:54.961Z,31.70
2022-11-29T09:38:59.289Z,33.60
2022-11-29T09:40:03.470Z,35.80
2022-11-29T09:41:21.840Z,29.30
2022-11-29T09:42:49.351Z,32.80
2022-11-29T09:43:52.279Z,32.50
2022-11-29T09:45:03.448Z,33.30
2022-11-29T09:46:25.442Z,32.30
2022-11-29T09:47:36.872Z,35.20
2022-11-29T09:49:24.778Z,31.20
2022-11-29T09:50:43.223Z,32.10
2022-11-29T09:52:09.012Z,31.90
2022-11-29T09:53:27.308Z,34.20
2022-11-29T09:54:50.234Z,37.80
2022-11-29T09:56:15.080Z,32.80
2022-11-29T09:57:19.762Z,35.00
2022-11-29T09:58:27.307Z,35.30
2022-11-29T09:59:48.081Z,34.50
2022-11-29T10:00:58.627Z,34.70
2022-11-29T10:02:21.869Z,35.70
2022-11-29T10:03:45.234Z,33.30
2022-11-29T10:04:54.113Z,34.70
2022-11-29T10:06:07.589Z,34.90
2022-11-29T10:07:22.452Z,36.00
2022-11-29T10:08:37.248Z,37.90
2022-11-29T10:09:50.436Z,32.90
2022-11-29T10:11:02.690Z,33.80
2022-11-29T10:12:17.295Z,33.40
2022-11-29T10:13:23.669Z,42.70
2022-11-29T10:14:42.531Z,36.80
2022-11-29T10:15:50.391Z,38.10
2022-11-29T10:17:13.330Z,37.40
2022-11-29T10:18:23.135Z,36.10
2022-11-29T10:19:44.640Z,35.20
2022-11-29T10:20:49.797Z,37.30
2022-11-29T10:21:59.847Z,36.60
2022-11-29T10:23:13.125Z,38.60
2022-11-29T10:24:20.541Z,38.40
2022-11-29T10:25:47.338Z,40.80
2022-11-29T10:26:50.358Z,40.00
2022-11-29T10:27:54.418Z,42.50
2022-11-29T10:28:58.125Z,40.40
2022-11-29T10:30:02.739Z,41.50
2022-11-29T10:31:26.808Z,42.80
2022-11-29T10:32:32.186Z,40.70
2022-11-29T10:33:39.927Z,39.80
2022-11-29T10:34:43.878Z,38.70
2022-11-29T10:35:49.564Z,41.90
2022-11-29T10:36:59.732Z,36.80
2022-11-29T10:38:29.783Z,34.90
2022-11-29T10:39:44.639Z,37.80
2022-11-29T10:40:52.424Z,35.90
2022-11-29T10:41:59.742Z,37.40
2022-11-29T10:43:03.121Z,36.10
2022-11-29T10:44:06.103Z,40.20
2022-11-29T10:45:18.058Z,41.40
2022-11-29T10:46:34.836Z,37.80
2022-11-29T10:47:38.251Z,41.90
2022-11-29T10:48:41.358Z,37.10
2022-11-29T10:49:44.499Z,36.10
2022-11-29T10:50:50.547Z,40.90
2022-11-29T10:51:53.668Z,34.40
2022-11-29T10:53:04.997Z,39.50
2022-11-29T10:54:23.359Z,36.40
2022-11-29T10:55:27.993Z,39.20
2022-11-29T10:56:35.540Z,38.60
2022-11-29T10:58:10.865Z,39.90
2022-11-29T10:59:25.904Z,39.20
2022-11-29T11:00:28.960Z,37.80
2022-11-29T11:01:36.775Z,38.20
2022-11-29T11:02:40.033Z,40.40
2022-11-29T11:03:53.026Z,36.80
2022-11-29T11:04:57.177Z,37.50
2022-11-29T11:06:13.799Z,39.20
2022-11-29T11:07:31.048Z,42.10
2022-11-29T11:08:35.843Z,34.70
2022-11-29T11:09:50.428Z,38.90
2022-11-29T11:11:01.225Z,40.20
2022-11-29T11:12:16.955Z,36.70
2022-11-29T11:13:34.330Z,35.70
2022-11-29T11:14:38.764Z,37.20
2022-11-29T11:15:41.707Z,39.20
2022-11-29T11:16:44.720Z,32.20
2022-11-29T11:18:05.022Z,37.70
2022-11-29T11:19:34.216Z,38.20
2022-11-29T11:20:41.744Z,37.50
2022-11-29T11:21:44.698Z,39.60
2022-11-29T11:23:23.963Z,38.40
2022-11-29T11:24:30.516Z,37.70
2022-11-29T11:25:37.521Z,38.00
2022-11-29T11:26:45.351Z,36.00
2022-11-29T11:27:48.331Z,36.10
2022-11-29T11:28:59.025Z,37.50
2022-11-29T11:31:11.451Z,35.90
2022-11-29T11:32:19.757Z,38.90
2022-11-29T11:33:22.650Z,40.90
2022-11-29T11:34:28.530Z,36.70
2022-11-29T11:35:31.549Z,36.30
2022-11-29T11:36:34.565Z,34.70
2022-11-29T11:37:37.791Z,36.00
2022-11-29T11:38:51.397Z,35.50
2022-11-29T11:40:00.311Z,36.00
2022-11-29T11:41:54.149Z,35.80
2022-11-29T11:43:00.749Z,38.00
2022-11-29T11:44:10.437Z,38.60
2022-11-29T11:45:36.737Z,35.70
2022-11-29T11:46:48.213Z,37.30
2022-11-29T11:47:53.979Z,37.50
2022-11-29T11:48:57.010Z,32.50
2022-11-29T11:50:02.483Z,38.50
2022-11-29T11:51:05.863Z,36.60
2022-11-29T11:52:22.106Z,36.40
2022-11-29T11:53:30.620Z,38.90
2022-11-29T11:54:33.905Z,38.30
2022-11-29T11:55:42.602Z,35.10
2022-11-29T11:56:45.797Z,38.70
2022-11-29T11:57:57.638Z,40.20
2022-11-29T11:59:01.082Z,38.30
2022-11-29T12:00:07.192Z,36.70
2022-11-29T12:01:16.167Z,33.90
2022-11-29T12:02:27.770Z,38.10
2022-11-29T12:03:40.065Z,36.00
2022-11-29T12:04:44.010Z,35.40
2022-11-29T12:05:51.799Z,38.20
2022-11-29T12:07:03.109Z,35.20
2022-11-29T12:08:11.383Z,32.40
2022-11-29T12:09:32.972Z,32.90
2022-11-29T12:10:38.737Z,33.40
2022-11-29T12:11:45.942Z,35.40
2022-11-29T12:12:50.456Z,35.70
2022-11-29T12:13:59.223Z,40.10
2022-11-29T12:15:15.484Z,32.80
2022-11-29T12:16:29.686Z,37.50
2022-11-29T12:17:42.091Z,35.30
2022-11-29T12:18:51.776Z,36.00
2022-11-29T12:20:38.233Z,37.70
2022-11-29T12:21:47.317Z,34.40
2022-11-29T12:22:53.415Z,31.60
2022-11-29T12:24:26.575Z,34.00
2022-11-29T12:25:34.616Z,31.10
2022-11-29T12:26:58.339Z,32.20
2022-11-29T12:28:02.001Z,28.50
2022-11-29T12:29:14.705Z,33.50
2022-11-29T12:30:20.858Z,30.80
2022-11-29T12:31:26.728Z,33.60
2022-11-29T12:33:17.937Z,30.90
2022-11-29T12:35:47.958Z,31.60
2022-11-29T12:36:57.129Z,34.00
2022-11-29T12:38:06.211Z,29.40
2022-11-29T12:39:34.054Z,31.90
2022-11-29T12:41:16.314Z,32.30
2022-11-29T12:42:41.025Z,30.30
2022-11-29T12:43:54.667Z,31.80
2022-11-29T12:45:13.107Z,30.40
2022-11-29T12:46:26.507Z,30.40
2022-11-29T12:47:36.735Z,33.40
2022-11-29T12:50:07.502Z,33.50
2022-11-29T12:51:25.189Z,30.30
2022-11-29T12:52:43.245Z,36.10
2022-11-29T12:53:58.228Z,29.60
2022-11-29T12:55:13.038Z,32.50
2022-11-29T12:56:44.948Z,30.80
2022-11-29T12:58:06.342Z,31.70
2022-11-29T12:59:48.943Z,33.20
2022-11-29T13:01:30.506Z,30.30
2022-11-29T13:02:48.882Z,32.70
2022-11-29T13:04:20.371Z,34.50
2022-11-29T13:05:52.929Z,31.20
2022-11-29T13:07:20.315Z,36.90
2022-11-29T13:08:54.032Z,31.50
2022-11-29T13:10:18.240Z,35.40
2022-11-29T13:11:32.784Z,31.80
2022-11-29T13:12:55.763Z,31.30
2022-11-29T13:14:43.000Z,32.70
2022-11-29T13:16:36.145Z,34.30
2022-11-29T13:18:03.782Z,33.30
2022-11-29T13:19:18.641Z,31.10
2022-11-29T13:20:41.819Z,30.10
2022-11-29T13:22:14.523Z,37.80
2022-11-29T13:24:07.239Z,32.10
2022-11-29T13:25:17.349Z,35.70
2022-11-29T13:26:22.936Z,31.60
2022-11-29T13:27:33.350Z,35.70
2022-11-29T13:28:40.114Z,32.10
2022-11-29T13:29:43.529Z,32.40
2022-11-29T13:30:47.111Z,33.70
2022-11-29T13:31:50.605Z,32.80
2022-11-29T13:33:05.665Z,31.70
2022-11-29T13:34:36.083Z,32.10
2022-11-29T13:35:52.638Z,33.30
2022-11-29T13:37:27.707Z,29.80
2022-11-29T13:38:40.309Z,30.10
2022-11-29T13:39:59.071Z,30.10
2022-11-29T13:41:20.037Z,32.40
2022-11-29T13:42:41.743Z,32.70
2022-11-29T13:43:53.292Z,28.80
2022-11-29T13:45:19.373Z,30.60
2022-11-29T13:46:30.381Z,30.70
2022-11-29T13:47:48.601Z,30.10
2022-11-29T13:48:54.048Z,32.50
2022-11-29T13:50:04.399Z,32.40
2022-11-29T13:51:27.094Z,31.10
2022-11-29T13:52:42.296Z,28.00
2022-11-29T13:53:48.801Z,32.60
2022-11-29T13:55:11.446Z,36.30
2022-11-29T13:56:42.896Z,33.10
2022-11-29T13:58:16.959Z,29.80
2022-11-29T13:59:30.652Z,32.90
2022-11-29T14:00:43.876Z,31.90
2022-11-29T14:01:50.680Z,32.40
2022-11-29T14:02:55.463Z,34.00
2022-11-29T14:04:07.098Z,30.60
2022-11-29T14:05:25.607Z,32.10
2022-11-29T14:06:34.715Z,30.50
2022-11-29T14:08:18.099Z,31.40
2022-11-29T14:09:31.487Z,31.60
2022-11-29T14:10:34.717Z,31.90
2022-11-29T14:11:48.900Z,34.10
2022-11-29T14:12:56.831Z,31.90
2022-11-29T14:14:17.337Z,30.10
2022-11-29T14:15:32.069Z,34.10
2022-11-29T14:16:46.463Z,30.40
2022-11-29T14:17:58.940Z,31.40
2022-11-29T14:19:08.108Z,34.30
2022-11-29T14:20:23.170Z,31.30
2022-11-29T14:21:26.255Z,30.00
2022-11-29T14:22:30.600Z,34.90
2022-11-29T14:23:44.534Z,31.30
2022-11-29T14:25:00.916Z,30.80
2022-11-29T14:26:03.857Z,28.90
2022-11-29T14:27:07.377Z,29.50
2022-11-29T14:28:28.900Z,30.10
2022-11-29T14:29:50.517Z,31.40
2022-11-29T14:30:55.667Z,32.00
2022-11-29T14:31:59.968Z,32.10
2022-11-29T14:33:18.704Z,32.90
2022-11-29T14:34:33.022Z,30.70
2022-11-29T14:35:43.623Z,33.80
2022-11-29T14:36:59.209Z,30.60
2022-11-29T14:38:32.057Z,32.10
2022-11-29T14:39:44.893Z,31.20
2022-11-29T14:41:48.401Z,31.00
2022-11-29T14:42:52.811Z,33.40
2022-11-29T14:44:27.837Z,34.60
2022-11-29T14:45:33.712Z,32.00
2022-11-29T14:46:36.782Z,35.70
2022-11-29T14:47:48.803Z,31.80
2022-11-29T14:48:54.698Z,34.90
2022-11-29T14:50:00.182Z,32.90
2022-11-29T14:51:18.630Z,32.20
2022-11-29T14:52:27.544Z,30.00
2022-11-29T14:53:36.221Z,32.80
2022-11-29T14:54:54.661Z,32.40
2022-11-29T14:56:32.360Z,34.60
2022-11-29T14:57:50.276Z,35.00
2022-11-29T14:59:31.092Z,29.20
2022-11-29T15:01:10.617Z,31.50
2022-11-29T15:02:29.423Z,33.50
2022-11-29T15:03:37.004Z,33.80
2022-11-29T15:04:40.662Z,28.60
2022-11-29T15:05:47.038Z,33.00
2022-11-29T15:06:53.118Z,33.10
2022-11-29T15:08:22.423Z,31.90
2022-11-29T15:09:27.633Z,31.40
2022-11-29T15:10:35.998Z,34.80
2022-11-29T15:11:45.469Z,31.00
2022-11-29T15:12:50.194Z,30.30
2022-11-29T15:14:05.008Z,33.90
2022-11-29T15:15:21.634Z,32.90
2022-11-29T15:16:33.791Z,33.10
2022-11-29T15:18:01.078Z,31.60
2022-11-29T15:19:39.593Z,35.20
2022-11-29T15:20:51.457Z,30.70
2022-11-29T15:22:09.674Z,31.20
2022-11-29T15:23:18.392Z,30.60
2022-11-29T15:24:26.771Z,29.10
2022-11-29T15:25:32.336Z,31.00
2022-11-29T15:26:35.507Z,29.30
2022-11-29T15:27:53.333Z,30.30
2022-11-29T15:29:17.052Z,31.70
2022-11-29T15:30:35.809Z,27.90
2022-11-29T15:31:42.083Z,32.10
2022-11-29T15:32:45.316Z,28.40
2022-11-29T15:33:49.326Z,30.50
2022-11-29T15:34:55.463Z,29.10
2022-11-29T15:36:07.772Z,28.00
2022-11-29T15:37:36.647Z,26.90
2022-11-29T15:38:47.139Z,31.90
2022-11-29T15:40:02.549Z,30.70
2022-11-29T15:41:05.617Z,30.00
2022-11-29T15:42:15.672Z,30.50
2022-11-29T15:43:22.430Z,27.40
2022-11-29T15:44:25.421Z,29.40
2022-11-29T15:45:30.436Z,30.00
2022-11-29T15:46:35.485Z,29.20
2022-11-29T15:47:38.777Z,30.50
2022-11-29T15:48:41.675Z,26.10
2022-11-29T15:49:44.726Z,32.90
2022-11-29T15:51:17.176Z,31.00
2022-11-29T15:52:36.386Z,28.60
2022-11-29T15:53:54.040Z,28.50
2022-11-29T15:55:06.522Z,28.80
2022-11-29T15:56:30.897Z,27.80
2022-11-29T15:57:45.424Z,27.90